createdAt,value
2017-05-10T00:01:38.197Z,1.20
2017-05-10T00:04:05.829Z,1.20
2017-05-10T00:06:34.544Z,1.30
2017-05-10T00:09:02.182Z,1.20
2017-05-10T00:11:29.812Z,1.20
2017-05-10T00:13:57.781Z,1.20
2017-05-10T00:16:25.426Z,1.20
2017-05-10T00:18:53.824Z,1.10
2017-05-10T00:21:21.848Z,1.10
2017-05-10T00:23:49.480Z,1.10
2017-05-10T00:26:17.559Z,1.00
2017-05-10T00:28:45.511Z,0.90
2017-05-10T00:31:13.145Z,0.90
2017-05-10T00:33:41.540Z,0.90
2017-05-10T00:36:11.001Z,0.80
2017-05-10T00:38:38.633Z,0.80
2017-05-10T00:41:06.269Z,0.90
2017-05-10T00:43:34.252Z,0.90
2017-05-10T00:46:01.949Z,0.80
2017-05-10T00:48:29.585Z,0.90
2017-05-10T00:50:58.321Z,0.80
2017-05-10T00:53:26.754Z,0.80
2017-05-10T00:55:54.399Z,0.70
2017-05-10T00:58:22.357Z,0.80
2017-05-10T01:00:49.984Z,0.80
2017-05-10T01:03:17.618Z,0.80
2017-05-10T01:05:45.633Z,0.90
2017-05-10T01:08:13.272Z,0.80
2017-05-10T01:10:41.669Z,0.90
2017-05-10T01:13:09.697Z,0.80
2017-05-10T01:15:38.101Z,0.90
2017-05-10T01:18:05.747Z,0.80
2017-05-10T01:20:33.774Z,1.00
2017-05-10T01:23:01.396Z,1.00
2017-05-10T01:25:29.806Z,1.00
2017-05-10T01:27:57.821Z,0.90
2017-05-10T01:30:25.449Z,1.00
2017-05-10T01:32:53.076Z,1.10
2017-05-10T01:35:21.769Z,1.00
2017-05-10T01:37:49.409Z,0.90
2017-05-10T01:40:17.054Z,1.00
2017-05-10T01:42:45.040Z,1.00
2017-05-10T01:45:12.712Z,1.00
2017-05-10T01:47:41.841Z,1.00
2017-05-10T01:50:09.865Z,1.00
2017-05-10T01:52:37.500Z,1.00
2017-05-10T01:55:06.639Z,1.00
2017-05-10T01:57:34.618Z,1.00
2017-05-10T02:00:03.024Z,1.10
2017-05-10T02:02:31.425Z,1.10
2017-05-10T02:04:59.393Z,1.00
2017-05-10T02:07:27.797Z,1.10
2017-05-10T02:09:56.234Z,1.20
2017-05-10T02:12:24.931Z,1.20
2017-05-10T02:14:52.570Z,1.10
2017-05-10T02:17:21.718Z,1.20
2017-05-10T02:19:49.665Z,1.20
2017-05-10T02:22:18.065Z,1.30
2017-05-10T02:24:45.714Z,1.30
2017-05-10T02:27:13.654Z,1.40
2017-05-10T02:29:41.287Z,1.40
2017-05-10T02:32:09.688Z,1.40
2017-05-10T02:34:37.616Z,1.40
2017-05-10T02:37:05.261Z,1.40
2017-05-10T02:39:32.905Z,1.50
2017-05-10T02:42:00.844Z,1.80
2017-05-10T02:44:28.480Z,1.90
2017-05-10T02:46:56.114Z,1.90
2017-05-10T02:49:24.058Z,1.90
2017-05-10T02:51:51.697Z,2.00
2017-05-10T02:54:19.421Z,2.10
2017-05-10T02:56:47.372Z,2.10
2017-05-10T02:59:15.005Z,2.10
2017-05-10T03:01:42.641Z,2.20
2017-05-10T03:04:10.587Z,2.20
2017-05-10T03:06:38.221Z,2.20
2017-05-10T03:09:05.857Z,2.00
2017-05-10T03:11:33.828Z,2.10
2017-05-10T03:14:01.465Z,2.10
2017-05-10T03:16:29.868Z,2.20
2017-05-10T03:18:57.892Z,2.20
2017-05-10T03:21:26.317Z,2.20
2017-05-10T03:23:54.721Z,2.20
2017-05-10T03:26:22.672Z,2.10
2017-05-10T03:28:50.668Z,2.20
2017-05-10T03:31:18.301Z,2.30
2017-05-10T03:33:46.333Z,2.30
2017-05-10T03:36:14.742Z,2.20
2017-05-10T03:38:42.385Z,2.10
2017-05-10T03:41:11.114Z,2.10
2017-05-10T03:43:38.753Z,2.00
2017-05-10T03:46:06.384Z,2.00
2017-05-10T03:48:34.464Z,1.90
2017-05-10T03:51:02.971Z,2.00
2017-05-10T03:53:30.601Z,1.90
2017-05-10T03:55:58.530Z,2.00
2017-05-10T03:58:26.173Z,2.00
2017-05-10T04:00:53.819Z,2.10
2017-05-10T04:03:21.761Z,2.20
2017-05-10T04:05:49.392Z,2.30
2017-05-10T04:08:17.025Z,2.30
2017-05-10T04:10:45.741Z,2.50
2017-05-10T04:13:13.840Z,2.40
2017-05-10T04:15:41.475Z,2.50
2017-05-10T04:18:11.127Z,2.70
2017-05-10T04:20:38.837Z,2.80
2017-05-10T04:23:07.235Z,3.10
2017-05-10T04:25:36.128Z,3.20
2017-05-10T04:28:03.758Z,3.10
2017-05-10T04:30:31.460Z,3.30
2017-05-10T04:33:00.164Z,3.60
2017-05-10T04:35:27.808Z,3.50
2017-05-10T04:37:55.444Z,3.80
2017-05-10T04:40:24.261Z,4.20
2017-05-10T04:42:51.893Z,4.20
2017-05-10T04:45:19.529Z,4.50
2017-05-10T04:47:47.512Z,4.80
2017-05-10T04:50:15.149Z,5.00
2017-05-10T04:52:42.785Z,5.10
2017-05-10T04:55:10.852Z,5.20
2017-05-10T04:57:38.476Z,5.20
2017-05-10T05:00:06.110Z,5.40
2017-05-10T05:02:34.962Z,5.60
2017-05-10T05:05:02.593Z,5.50
2017-05-10T05:07:30.217Z,5.60
2017-05-10T05:09:58.990Z,5.50
2017-05-10T05:12:27.389Z,5.30
2017-05-10T05:14:55.792Z,5.30
2017-05-10T05:17:23.761Z,5.20
2017-05-10T05:19:52.156Z,5.40
2017-05-10T05:22:19.813Z,5.30
2017-05-10T05:24:47.770Z,5.40
2017-05-10T05:27:15.401Z,5.50
2017-05-10T05:29:43.066Z,5.80
2017-05-10T05:32:11.077Z,6.00
2017-05-10T05:34:38.726Z,6.10
2017-05-10T05:37:07.156Z,6.10
2017-05-10T05:39:35.910Z,6.10
2017-05-10T05:42:04.310Z,6.20
2017-05-10T05:44:31.980Z,6.10
2017-05-10T05:47:00.845Z,6.10
2017-05-10T05:49:29.268Z,6.10
2017-05-10T05:51:57.661Z,6.30
2017-05-10T05:54:25.625Z,6.20
2017-05-10T05:56:53.253Z,6.40
2017-05-10T05:59:20.884Z,6.80
2017-05-10T06:01:49.593Z,7.80
2017-05-10T06:04:17.231Z,7.70
2017-05-10T06:06:44.873Z,8.10
2017-05-10T06:09:13.577Z,8.80
2017-05-10T06:11:41.307Z,8.70
2017-05-10T06:14:08.951Z,8.90
2017-05-10T06:16:36.920Z,9.20
2017-05-10T06:19:04.553Z,9.00
2017-05-10T06:21:32.181Z,8.90
2017-05-10T06:24:00.152Z,9.20
2017-05-10T06:26:28.559Z,10.30
2017-05-10T06:28:56.192Z,10.30
2017-05-10T06:31:24.224Z,10.80
2017-05-10T06:33:52.642Z,11.60
2017-05-10T06:36:21.055Z,11.90
2017-05-10T06:38:48.999Z,11.80
2017-05-10T06:41:16.667Z,12.20
2017-05-10T06:43:44.310Z,12.30
2017-05-10T06:46:13.090Z,13.10
2017-05-10T06:48:41.509Z,13.10
2017-05-10T06:51:09.149Z,13.10
2017-05-10T06:53:37.957Z,13.60
2017-05-10T06:56:05.598Z,13.70
2017-05-10T06:58:33.996Z,12.10
2017-05-10T07:01:02.754Z,11.80
2017-05-10T07:03:31.160Z,11.60
2017-05-10T07:05:59.620Z,11.40
2017-05-10T07:08:28.438Z,12.00
2017-05-10T07:10:56.087Z,12.00
2017-05-10T07:13:23.726Z,12.30
2017-05-10T07:15:51.788Z,12.00
2017-05-10T07:18:20.184Z,11.80
2017-05-10T07:20:48.600Z,12.00
2017-05-10T07:23:17.412Z,12.90
2017-05-10T07:25:45.825Z,13.70
2017-05-10T07:28:13.468Z,13.70
2017-05-10T07:30:42.189Z,13.70
2017-05-10T07:33:10.593Z,13.60
2017-05-10T07:35:38.234Z,13.50
2017-05-10T07:38:06.262Z,13.50
2017-05-10T07:40:33.896Z,13.60
2017-05-10T07:43:02.333Z,13.60
2017-05-10T07:45:30.283Z,13.60
2017-05-10T07:47:57.925Z,13.50
2017-05-10T07:50:25.565Z,13.30
2017-05-10T07:52:54.276Z,13.00
2017-05-10T07:55:21.915Z,12.90
2017-05-10T07:57:50.327Z,13.30
2017-05-10T08:00:19.051Z,13.90
2017-05-10T08:02:46.711Z,13.80
2017-05-10T08:05:14.363Z,14.30
2017-05-10T08:07:42.407Z,14.50
2017-05-10T08:10:10.077Z,14.60
2017-05-10T08:12:39.235Z,15.60
2017-05-10T08:15:07.186Z,15.60
2017-05-10T08:17:34.828Z,16.60
2017-05-10T08:20:02.465Z,17.10
2017-05-10T08:22:30.429Z,16.80
2017-05-10T08:27:35.969Z,16.40
2017-05-10T08:30:03.613Z,16.50
2017-05-10T08:32:31.257Z,17.00
2017-05-10T08:34:59.210Z,17.30
2017-05-10T08:37:26.844Z,17.20
2017-05-10T08:39:54.481Z,16.70
2017-05-10T08:42:22.455Z,16.30
2017-05-10T08:44:50.098Z,16.00
2017-05-10T08:47:18.516Z,16.80
2017-05-10T08:49:47.254Z,16.90
2017-05-10T08:52:14.893Z,16.90
2017-05-10T08:54:42.543Z,17.10
2017-05-10T08:57:10.501Z,16.80
2017-05-10T08:59:38.140Z,16.60
2017-05-10T09:02:05.789Z,16.90
2017-05-10T09:04:33.730Z,17.10
2017-05-10T09:07:02.141Z,17.80
2017-05-10T09:09:29.755Z,17.70
2017-05-10T09:11:57.700Z,17.60
2017-05-10T09:14:26.094Z,18.10
2017-05-10T09:16:54.490Z,18.50
2017-05-10T09:19:22.430Z,18.50
2017-05-10T09:21:51.550Z,18.80
2017-05-10T09:24:19.169Z,18.70
2017-05-10T09:26:47.981Z,18.40
2017-05-10T09:29:15.593Z,18.40
2017-05-10T09:31:43.225Z,17.90
2017-05-10T09:34:11.324Z,17.20
2017-05-10T09:36:38.969Z,16.20
2017-05-10T09:39:06.620Z,16.20
2017-05-10T09:41:35.401Z,17.30
2017-05-10T09:44:03.045Z,17.20
2017-05-10T09:46:30.680Z,16.80
2017-05-10T09:48:58.587Z,17.30
2017-05-10T09:51:26.209Z,18.20
2017-05-10T09:53:53.845Z,18.30
2017-05-10T09:56:22.607Z,18.90
2017-05-10T09:58:50.287Z,18.80
2017-05-10T10:01:18.821Z,18.70
2017-05-10T10:03:46.784Z,18.00
2017-05-10T10:06:14.440Z,17.60
2017-05-10T10:08:42.082Z,17.40
2017-05-10T10:11:10.048Z,17.20
2017-05-10T10:13:37.660Z,17.50
2017-05-10T10:16:06.046Z,18.20
2017-05-10T10:18:33.988Z,18.20
2017-05-10T10:21:01.624Z,17.70
2017-05-10T10:23:30.029Z,16.80
2017-05-10T10:25:57.956Z,16.70
2017-05-10T10:28:25.595Z,16.60
2017-05-10T10:30:53.249Z,16.20
2017-05-10T10:33:21.205Z,16.20
2017-05-10T10:35:48.846Z,16.00
2017-05-10T10:38:16.498Z,16.50
2017-05-10T10:40:44.441Z,17.10
2017-05-10T10:43:12.085Z,18.00
2017-05-10T10:45:39.733Z,17.90
2017-05-10T10:48:07.792Z,18.00
2017-05-10T10:50:36.198Z,18.10
2017-05-10T10:53:04.610Z,18.50
2017-05-10T10:55:32.580Z,18.40
2017-05-10T10:58:00.193Z,18.70
2017-05-10T11:00:28.582Z,18.90
2017-05-10T11:02:56.535Z,18.80
2017-05-10T11:05:24.183Z,18.60
2017-05-10T11:07:51.821Z,18.30
2017-05-10T11:10:19.785Z,17.70
2017-05-10T11:12:47.441Z,17.50
2017-05-10T11:15:15.086Z,17.60
2017-05-10T11:17:43.041Z,18.00
2017-05-10T11:20:11.447Z,17.90
2017-05-10T11:22:39.104Z,17.80
2017-05-10T11:25:07.096Z,17.60
2017-05-10T11:27:34.745Z,16.90
2017-05-10T11:30:02.385Z,16.70
2017-05-10T11:32:31.089Z,16.80
2017-05-10T11:34:58.742Z,16.80
2017-05-10T11:37:26.382Z,17.00
2017-05-10T11:39:54.406Z,16.70
2017-05-10T11:42:22.158Z,16.50
2017-05-10T11:44:49.812Z,16.20
2017-05-10T11:47:18.569Z,15.60
2017-05-10T11:49:46.209Z,15.60
2017-05-10T11:52:13.852Z,15.60
2017-05-10T11:54:42.828Z,15.90
2017-05-10T11:57:11.225Z,15.80
2017-05-10T11:59:38.870Z,15.80
2017-05-10T12:02:06.821Z,15.70
2017-05-10T12:04:35.235Z,15.70
2017-05-10T12:07:02.877Z,15.70
2017-05-10T12:09:31.596Z,15.30
2017-05-10T12:11:59.229Z,15.20
2017-05-10T12:14:26.878Z,14.80
2017-05-10T12:16:54.884Z,15.10
2017-05-10T12:19:23.294Z,15.40
2017-05-10T12:21:50.952Z,15.40
2017-05-10T12:24:18.910Z,15.30
2017-05-10T12:26:47.318Z,15.60
2017-05-10T12:29:14.962Z,15.50
2017-05-10T12:31:43.685Z,15.90
2017-05-10T12:34:11.320Z,15.80
2017-05-10T12:36:39.729Z,15.90
2017-05-10T12:39:07.757Z,15.90
2017-05-10T12:41:35.407Z,16.00
2017-05-10T12:44:03.820Z,16.10
2017-05-10T12:46:32.542Z,16.20
2017-05-10T12:49:00.955Z,16.00
2017-05-10T12:51:29.357Z,16.10
2017-05-10T12:53:57.411Z,16.00
2017-05-10T12:56:25.051Z,16.00
2017-05-10T12:58:52.708Z,16.10
2017-05-10T13:01:20.766Z,15.90
2017-05-10T13:03:48.413Z,15.50
2017-05-10T13:06:16.052Z,15.50
2017-05-10T13:08:44.018Z,15.60
2017-05-10T13:11:11.663Z,15.60
2017-05-10T13:13:39.304Z,15.60
2017-05-10T13:16:08.181Z,15.70
2017-05-10T13:18:35.817Z,15.60
2017-05-10T13:21:03.454Z,15.80
2017-05-10T13:23:32.148Z,15.60
2017-05-10T13:25:59.780Z,15.50
2017-05-10T13:28:27.426Z,15.60
2017-05-10T13:30:55.378Z,15.80
2017-05-10T13:33:23.012Z,15.90
2017-05-10T13:35:50.678Z,16.10
2017-05-10T13:38:19.556Z,16.10
2017-05-10T13:40:47.196Z,15.90
2017-05-10T13:43:15.609Z,15.70
2017-05-10T13:45:43.630Z,15.60
2017-05-10T13:48:11.268Z,15.70
2017-05-10T13:50:38.926Z,15.70
2017-05-10T13:53:06.885Z,15.50
2017-05-10T13:55:34.519Z,15.50
2017-05-10T13:58:02.156Z,15.60
2017-05-10T14:00:30.121Z,15.80
2017-05-10T14:02:57.762Z,16.10
2017-05-10T14:05:25.412Z,16.10
2017-05-10T14:07:54.184Z,16.00
2017-05-10T14:10:21.819Z,15.90
2017-05-10T14:12:49.516Z,16.00
2017-05-10T14:15:18.240Z,15.80
2017-05-10T14:17:45.939Z,15.80
2017-05-10T14:20:14.344Z,15.70
2017-05-10T14:22:42.314Z,15.60
2017-05-10T14:25:09.944Z,15.60
2017-05-10T14:27:37.582Z,15.50
2017-05-10T14:30:05.516Z,15.40
2017-05-10T14:32:33.917Z,15.40
2017-05-10T14:35:01.556Z,15.30
2017-05-10T14:37:30.282Z,15.40
2017-05-10T14:39:57.927Z,15.30
2017-05-10T14:42:25.573Z,15.30
2017-05-10T14:44:54.277Z,15.40
2017-05-10T14:47:21.925Z,15.40
2017-05-10T14:49:49.573Z,15.40
2017-05-10T14:52:17.683Z,15.40
2017-05-10T14:54:46.084Z,15.30
2017-05-10T14:57:14.489Z,15.40
2017-05-10T14:59:42.548Z,15.30
2017-05-10T15:02:10.214Z,15.40
2017-05-10T15:04:37.869Z,15.40
2017-05-10T15:07:05.818Z,15.50
2017-05-10T15:09:33.461Z,15.30
2017-05-10T15:12:01.862Z,15.40
2017-05-10T15:14:30.573Z,15.30
2017-05-10T15:16:58.236Z,15.30
2017-05-10T15:19:25.893Z,15.20
2017-05-10T15:21:53.917Z,15.30
2017-05-10T15:24:21.557Z,15.30
2017-05-10T15:26:49.196Z,15.20
2017-05-10T15:29:17.166Z,15.10
2017-05-10T15:31:44.805Z,15.00
2017-05-10T15:34:13.208Z,14.90
2017-05-10T15:36:41.233Z,14.90
2017-05-10T15:39:08.921Z,15.00
2017-05-10T15:41:37.328Z,15.00
2017-05-10T15:44:06.053Z,15.00
2017-05-10T15:46:33.689Z,14.90
2017-05-10T15:49:01.325Z,15.00
2017-05-10T15:51:29.413Z,15.00
2017-05-10T15:53:57.814Z,14.90
2017-05-10T15:56:25.461Z,14.80
2017-05-10T15:58:53.432Z,14.90
2017-05-10T16:01:21.064Z,14.80
2017-05-10T16:03:48.706Z,14.80
2017-05-10T16:06:16.685Z,14.70
2017-05-10T16:08:44.316Z,14.70
2017-05-10T16:11:11.953Z,14.60
2017-05-10T16:13:40.130Z,14.50
2017-05-10T16:16:07.792Z,14.50
2017-05-10T16:18:36.193Z,14.50
2017-05-10T16:21:05.017Z,14.50
2017-05-10T16:23:33.436Z,14.50
2017-05-10T16:26:02.144Z,14.50
2017-05-10T16:28:30.100Z,14.60
2017-05-10T16:30:57.734Z,14.60
2017-05-10T16:33:26.861Z,14.50
2017-05-10T16:35:54.896Z,14.50
2017-05-10T16:38:22.536Z,14.50
2017-05-10T16:40:50.611Z,14.50
2017-05-10T16:43:18.712Z,14.40
2017-05-10T16:45:46.360Z,14.40
2017-05-10T16:48:14.793Z,14.40
2017-05-10T16:50:42.810Z,14.30
2017-05-10T16:53:10.448Z,14.30
2017-05-10T16:55:38.114Z,14.30
2017-05-10T16:58:06.053Z,14.20
2017-05-10T17:00:33.682Z,14.10
2017-05-10T17:03:01.325Z,14.10
2017-05-10T17:05:30.152Z,14.10
2017-05-10T17:07:58.128Z,14.00
2017-05-10T17:10:26.552Z,14.10
2017-05-10T17:12:54.612Z,14.00
2017-05-10T17:15:24.022Z,14.00
2017-05-10T17:17:52.447Z,14.00
2017-05-10T17:20:21.247Z,13.90
2017-05-10T17:22:50.408Z,13.80
2017-05-10T17:25:18.057Z,13.80
2017-05-10T17:27:46.116Z,13.70
2017-05-10T17:30:13.757Z,13.70
2017-05-10T17:32:41.425Z,13.70
2017-05-10T17:35:09.510Z,13.60
2017-05-10T17:37:37.177Z,13.50
2017-05-10T17:40:04.824Z,13.50
2017-05-10T17:42:32.772Z,13.50
2017-05-10T17:45:01.178Z,13.40
2017-05-10T17:47:28.888Z,13.30
2017-05-10T17:49:56.890Z,13.40
2017-05-10T17:52:24.577Z,13.30
2017-05-10T17:54:52.266Z,13.30
2017-05-10T17:57:20.358Z,13.20
2017-05-10T17:59:48.002Z,13.20
2017-05-10T18:02:15.633Z,13.10
2017-05-10T18:04:44.405Z,12.90
2017-05-10T18:07:12.818Z,12.80
2017-05-10T18:09:41.313Z,12.70
2017-05-10T18:12:09.304Z,12.70
2017-05-10T18:14:36.937Z,12.60
2017-05-10T18:17:04.580Z,12.50
2017-05-10T18:19:32.547Z,12.40
2017-05-10T18:22:00.217Z,12.30
2017-05-10T18:24:28.680Z,12.10
2017-05-10T18:26:56.700Z,12.10
2017-05-10T18:29:24.339Z,12.00
2017-05-10T18:31:51.985Z,12.00
2017-05-10T18:34:20.042Z,11.80
2017-05-10T18:36:48.458Z,11.50
2017-05-10T18:39:16.908Z,11.40
2017-05-10T18:41:44.920Z,11.30
2017-05-10T18:44:12.565Z,11.20
2017-05-10T18:46:40.229Z,11.10
2017-05-10T18:49:08.581Z,11.00
2017-05-10T18:51:36.483Z,10.90
2017-05-10T18:54:04.382Z,10.80
2017-05-10T18:56:33.537Z,10.60
2017-05-10T18:59:03.633Z,10.60
2017-05-10T19:01:32.178Z,10.50
2017-05-10T19:04:01.729Z,10.20
2017-05-10T19:06:29.794Z,10.20
2017-05-10T19:08:57.635Z,10.30
2017-05-10T19:11:26.005Z,10.20
2017-05-10T19:13:53.725Z,10.10
2017-05-10T19:16:21.375Z,10.00
2017-05-10T19:18:50.100Z,10.00
2017-05-10T19:21:17.736Z,10.00
2017-05-10T19:23:46.157Z,10.00
2017-05-10T19:26:14.141Z,9.90
2017-05-10T19:28:41.780Z,10.00
2017-05-10T19:31:10.190Z,10.00
2017-05-10T19:33:38.374Z,9.90
2017-05-10T19:36:06.792Z,10.10
2017-05-10T19:38:34.441Z,10.00
2017-05-10T19:41:03.311Z,9.90
2017-05-10T19:43:30.945Z,9.90
2017-05-10T19:45:58.607Z,9.90
2017-05-10T19:48:26.545Z,9.90
2017-05-10T19:50:54.189Z,9.80
2017-05-10T19:53:21.834Z,9.80
2017-05-10T19:55:49.900Z,9.70
2017-05-10T19:58:17.539Z,9.60
2017-05-10T20:00:45.194Z,9.60
2017-05-10T20:03:13.132Z,9.70
2017-05-10T20:05:40.822Z,9.70
2017-05-10T20:08:08.481Z,9.70
2017-05-10T20:10:37.618Z,9.60
2017-05-10T20:13:05.263Z,9.50
2017-05-10T20:15:32.901Z,9.60
2017-05-10T20:18:01.681Z,9.50
2017-05-10T20:20:29.327Z,9.40
2017-05-10T20:22:56.969Z,9.50
2017-05-10T20:25:24.931Z,9.50
2017-05-10T20:27:53.346Z,9.30
2017-05-10T20:30:21.750Z,9.30
2017-05-10T20:32:49.694Z,9.30
2017-05-10T20:35:17.335Z,9.30
2017-05-10T20:37:45.068Z,9.20
2017-05-10T20:40:13.889Z,9.10
2017-05-10T20:42:41.546Z,9.10
2017-05-10T20:45:10.694Z,8.90
2017-05-10T20:47:38.670Z,8.90
2017-05-10T20:50:06.380Z,8.90
2017-05-10T20:52:34.029Z,8.80
2017-05-10T20:55:01.984Z,8.70
2017-05-10T20:57:30.256Z,8.70
2017-05-10T20:59:57.889Z,8.70
2017-05-10T21:02:25.857Z,8.60
2017-05-10T21:04:54.286Z,8.60
2017-05-10T21:07:22.697Z,8.50
2017-05-10T21:09:50.655Z,8.40
2017-05-10T21:12:18.298Z,8.30
2017-05-10T21:14:46.698Z,8.20
2017-05-10T21:17:14.718Z,8.20
2017-05-10T21:19:42.705Z,8.20
2017-05-10T21:22:11.133Z,8.00
2017-05-10T21:24:39.068Z,8.00
2017-05-10T21:27:06.717Z,8.10
2017-05-10T21:29:34.362Z,8.10
2017-05-10T21:32:02.439Z,8.10
2017-05-10T21:34:30.074Z,8.10
2017-05-10T21:36:57.730Z,7.90
2017-05-10T21:39:25.704Z,7.90
2017-05-10T21:41:53.366Z,7.70
2017-05-10T21:44:21.810Z,7.60
2017-05-10T21:46:50.553Z,7.50
2017-05-10T21:49:18.212Z,7.50
2017-05-10T21:51:45.845Z,7.50
2017-05-10T21:54:14.737Z,7.50
2017-05-10T21:56:42.397Z,7.40
2017-05-10T21:59:10.033Z,7.40
2017-05-10T22:01:37.991Z,7.30
2017-05-10T22:04:05.637Z,7.30
2017-05-10T22:06:34.036Z,7.10
2017-05-10T22:09:02.772Z,7.20
2017-05-10T22:11:30.418Z,7.10
2017-05-10T22:13:58.837Z,7.10
2017-05-10T22:16:26.844Z,7.10
2017-05-10T22:18:54.491Z,7.10
2017-05-10T22:21:22.892Z,7.10
2017-05-10T22:23:50.817Z,7.00
2017-05-10T22:26:18.565Z,7.00
2017-05-10T22:28:46.306Z,7.00
2017-05-10T22:31:15.056Z,6.90
2017-05-10T22:33:42.693Z,6.80
2017-05-10T22:36:10.341Z,6.90
2017-05-10T22:38:39.141Z,6.80
2017-05-10T22:41:06.794Z,6.70
2017-05-10T22:43:34.430Z,6.80
2017-05-10T22:46:02.385Z,6.70
2017-05-10T22:48:30.805Z,6.60
2017-05-10T22:50:58.446Z,6.60
2017-05-10T22:53:27.176Z,6.50
2017-05-10T22:55:54.820Z,6.50
2017-05-10T22:58:22.471Z,6.60
2017-05-10T23:00:50.500Z,6.60
2017-05-10T23:03:18.194Z,6.50
2017-05-10T23:05:46.607Z,6.50
2017-05-10T23:08:15.889Z,6.50
2017-05-10T23:10:43.537Z,6.40
2017-05-10T23:13:11.203Z,6.50
2017-05-10T23:15:39.170Z,6.40
2017-05-10T23:18:06.801Z,6.30
2017-05-10T23:20:34.443Z,6.30
2017-05-10T23:23:02.430Z,6.30
2017-05-10T23:25:30.074Z,6.30
2017-05-10T23:27:57.713Z,6.30
2017-05-10T23:33:01.301Z,6.20
2017-05-10T23:35:29.993Z,6.10
2017-05-10T23:37:57.648Z,6.10
2017-05-10T23:40:26.057Z,6.20
2017-05-10T23:42:54.761Z,6.10
2017-05-10T23:45:22.409Z,6.10
2017-05-10T23:47:51.564Z,6.00
2017-05-10T23:50:19.241Z,6.00
2017-05-10T23:52:47.664Z,5.90
2017-05-10T23:55:15.306Z,5.90
2017-05-10T23:57:42.991Z,5.80
